Time;durP1;ratioP1;P1;durP2;ratioP2;P2;SDS_P1;SDS_P2;PMS_P1;PMS_P2;Temp;Humidity;BMP_temperature;BMP_pressure;BME280_temperature;BME280_humidity;BME280_pressure;Samples;Min_cycle;Max_cycle;Signal;HPM_P1;HPM_P2
2021/09/02 00:01:20;;;;;;;15.98;10.85;;;16.40;99.90;;;16.17;84.53;101847.22;4171259;28;20088;-67
2021/09/02 00:03:21;;;;;;;15.00;10.73;;;16.40;99.90;;;16.24;84.45;101837.59;4171438;28;20029;-67
2021/09/02 00:05:22;;;;;;;14.35;11.18;;;16.40;99.90;;;16.23;85.11;101845.72;4170075;28;20029;-68
2021/09/02 00:07:23;;;;;;;14.57;11.15;;;16.30;99.90;;;16.10;85.30;101835.56;4170144;28;20040;-68
2021/09/02 00:09:25;;;;;;;14.23;11.18;;;16.40;99.90;;;16.09;85.23;101833.91;4186461;28;20036;-67
2021/09/02 00:11:26;;;;;;;16.05;11.13;;;16.30;99.90;;;16.04;85.60;101845.03;4170199;28;20056;-67
2021/09/02 00:13:27;;;;;;;15.32;10.98;;;16.30;99.90;;;16.05;85.61;101846.72;4171324;28;20033;-68
2021/09/02 00:15:28;;;;;;;17.23;11.63;;;16.30;99.90;;;16.01;85.64;101836.53;4171290;28;20029;-67
2021/09/02 00:17:29;;;;;;;16.80;10.80;;;16.20;99.90;;;16.06;85.78;101844.88;4169892;28;20033;-68
2021/09/02 00:19:30;;;;;;;14.55;10.75;;;16.30;99.90;;;15.99;86.45;101828.75;4171082;28;20025;-68
2021/09/02 00:21:31;;;;;;;16.65;11.85;;;16.20;99.90;;;16.07;85.99;101830.56;4171252;28;20114;-67
2021/09/02 00:23:32;;;;;;;19.55;11.45;;;16.10;99.90;;;15.97;86.33;101824.59;4171245;28;20021;-68
2021/09/02 00:25:33;;;;;;;15.90;10.35;;;16.10;99.90;;;16.00;86.05;101832.25;4171154;28;20018;-68
2021/09/02 00:27:34;;;;;;;16.38;10.90;;;16.10;99.90;;;15.95;86.52;101821.22;4169824;28;20108;-67
2021/09/02 00:29:34;;;;;;;16.65;11.35;;;16.10;99.90;;;16.02;85.91;101832.91;4171093;28;20029;-68
2021/09/02 00:31:35;;;;;;;16.10;10.73;;;16.10;99.90;;;15.98;86.00;101826.22;4171007;28;20033;-67
2021/09/02 00:33:36;;;;;;;14.00;11.50;;;16.10;99.90;;;15.94;86.52;101824.91;4170887;28;20045;-67
2021/09/02 00:35:37;;;;;;;17.25;11.77;;;16.10;99.90;;;15.84;86.34;101816.22;4186051;28;20040;-68
2021/09/02 00:37:38;;;;;;;14.52;11.73;;;16.10;99.90;;;15.91;86.65;101830.56;4169792;28;20063;-68
2021/09/02 00:39:39;;;;;;;13.98;10.45;;;16.10;99.90;;;15.75;87.89;101831.34;4170895;28;20029;-68
2021/09/02 00:41:40;;;;;;;16.17;10.98;;;16.00;99.90;;;15.84;86.96;101825.06;4170829;28;20068;-68
2021/09/02 00:43:42;;;;;;;17.08;12.15;;;15.90;99.90;;;15.67;87.77;101818.03;4169745;28;20080;-67
2021/09/02 00:45:43;;;;;;;16.65;12.70;;;16.00;99.90;;;15.62;87.87;101812.34;4169897;28;20571;-67
2021/09/02 00:47:44;;;;;;;13.38;10.38;;;15.90;99.90;;;15.70;87.88;101823.03;4170541;28;20029;-67
2021/09/02 00:49:46;;;;;;;18.77;12.60;;;15.90;99.90;;;15.60;88.42;101826.81;4170397;28;20034;-67
2021/09/02 00:51:47;;;;;;;16.83;11.98;;;15.80;99.90;;;15.66;88.05;101826.16;4170807;28;20025;-67
2021/09/02 00:53:52;;;;;;;15.52;11.52;;;15.80;99.90;;;15.57;88.35;101813.84;4170789;28;20030;-67
2021/09/02 00:55:52;;;;;;;15.52;11.35;;;15.80;99.90;;;15.64;88.06;101820.19;4169466;28;20037;-67
2021/09/02 00:57:53;;;;;;;19.08;11.70;;;15.80;99.90;;;15.61;88.46;101812.53;4169369;28;20036;-67
2021/09/02 00:59:58;;;;;;;16.52;11.68;;;15.80;99.90;;;15.50;88.76;101811.03;4170375;28;20437;-67
2021/09/02 01:01:59;;;;;;;21.25;12.88;;;15.80;99.90;;;15.55;88.73;101816.69;4169423;28;20040;-67
2021/09/02 01:04:03;;;;;;;14.57;11.30;;;15.80;99.90;;;15.58;88.30;101812.88;4169149;28;20017;-67
2021/09/02 01:06:04;;;;;;;17.10;11.27;;;15.80;99.90;;;15.55;88.68;101818.50;4169005;28;20030;-67
2021/09/02 01:08:06;;;;;;;15.43;11.43;;;15.70;99.90;;;15.46;88.97;101802.50;4170474;28;20107;-67
2021/09/02 01:10:09;;;;;;;17.90;11.95;;;15.70;99.90;;;15.56;88.36;101818.31;4170454;28;20477;-67
2021/09/02 01:12:32;;;;;;;18.77;12.35;;;15.70;99.90;;;15.57;88.39;101827.97;4170333;28;20029;-67
2021/09/02 01:14:33;;;;;;;17.33;12.40;;;15.70;99.90;;;15.58;88.43;101828.81;4169156;28;20021;-67
2021/09/02 01:16:34;;;;;;;15.73;11.77;;;15.70;99.90;;;15.44;89.14;101825.75;4170269;28;20436;-67
2021/09/02 01:18:35;;;;;;;18.10;12.60;;;15.70;99.90;;;15.56;88.50;101836.94;4169094;28;20033;-68
2021/09/02 01:20:36;;;;;;;20.33;13.48;;;15.60;99.90;;;15.52;88.71;101834.78;4169915;28;20485;-67
2021/09/02 01:22:38;;;;;;;15.95;11.07;;;15.70;99.90;;;15.34;89.55;101827.72;4169150;28;20057;-67
2021/09/02 01:24:39;;;;;;;16.80;11.10;;;15.60;99.90;;;15.31;89.58;101813.91;4169009;28;20025;-68
2021/09/02 01:26:41;;;;;;;14.88;11.75;;;15.60;99.90;;;15.40;89.66;101832.41;4170138;28;20048;-68
2021/09/02 01:28:42;;;;;;;16.05;11.55;;;15.50;99.90;;;15.50;88.71;101824.31;4170218;28;20030;-68
2021/09/02 01:30:44;;;;;;;16.52;11.45;;;15.60;99.90;;;15.55;88.84;101824.66;4169004;28;20509;-67
2021/09/02 01:32:48;;;;;;;15.13;11.88;;;15.60;99.90;;;15.53;89.27;101815.19;4169024;28;20033;-67
2021/09/02 01:34:52;;;;;;;18.60;12.50;;;15.60;99.90;;;15.46;89.33;101818.47;4168746;28;20123;-67
2021/09/02 01:36:53;;;;;;;;;;;15.60;99.90;;;15.38;88.94;101814.94;4169074;28;20029;-67
2021/09/02 01:38:53;;;;;;;18.52;12.23;;;15.50;99.90;;;15.38;89.68;101813.09;4170033;28;19909;-68
2021/09/02 01:40:55;;;;;;;17.40;11.98;;;15.60;99.90;;;15.42;89.33;101819.75;4170011;28;20033;-67
2021/09/02 01:42:57;;;;;;;15.07;11.70;;;15.50;99.90;;;15.33;90.01;101810.09;4168841;28;20026;-68
2021/09/02 01:44:58;;;;;;;21.15;12.18;;;15.50;99.90;;;15.41;89.27;101812.78;4168573;28;20033;-67
2021/09/02 01:46:59;;;;;;;16.00;11.55;;;15.50;99.90;;;15.40;90.17;101816.44;4169871;28;20101;-67
2021/09/02 01:49:00;;;;;;;18.08;12.20;;;15.50;99.90;;;15.33;89.94;101799.47;4169887;28;20544;-68
2021/09/02 01:51:02;;;;;;;20.15;12.18;;;15.50;99.90;;;15.36;89.54;101817.75;4169749;28;20131;-68
2021/09/02 01:53:13;;;;;;;15.73;11.48;;;15.50;99.90;;;15.42;89.41;101825.09;4168387;28;20026;-67
2021/09/02 01:55:15;;;;;;;15.10;11.57;;;15.50;99.90;;;15.37;89.90;101815.94;4169739;28;20080;-68
2021/09/02 01:57:16;;;;;;;18.55;11.73;;;15.50;99.90;;;15.36;89.60;101820.41;4168431;28;20060;-68
2021/09/02 01:59:17;;;;;;;16.85;12.65;;;15.40;99.90;;;15.29;89.64;101814.06;4168903;28;20041;-67
2021/09/02 02:01:18;;;;;;;18.02;11.90;;;15.40;99.90;;;15.33;90.12;101815.41;4168319;28;20028;-67
2021/09/02 02:03:19;;;;;;;18.38;12.57;;;15.40;99.90;;;15.36;89.37;101809.78;4169645;28;20017;-67
2021/09/02 02:05:21;;;;;;;15.50;12.13;;;15.40;99.90;;;15.33;89.66;101804.78;4168175;28;20025;-67
2021/09/02 02:07:22;;;;;;;18.17;11.88;;;15.40;99.90;;;15.37;89.38;101803.47;4168253;28;20097;-67
2021/09/02 02:09:23;;;;;;;16.35;12.00;;;15.40;99.90;;;15.22;89.99;101801.56;4168202;28;20458;-67
2021/09/02 02:11:23;;;;;;;16.42;11.02;;;15.40;99.90;;;15.23;90.51;101809.38;4184755;28;20098;-67
2021/09/02 02:13:24;;;;;;;19.77;11.05;;;15.40;99.90;;;15.24;90.37;101807.56;4184754;28;20508;-68
2021/09/02 02:15:27;;;;;;;18.15;11.43;;;15.30;99.90;;;15.29;89.99;101805.28;4168219;28;20033;-67
2021/09/02 02:17:28;;;;;;;18.58;12.35;;;15.40;99.90;;;15.33;89.84;101799.47;4169417;28;20463;-68
2021/09/02 02:19:29;;;;;;;17.17;11.40;;;15.30;99.90;;;15.26;90.22;101798.44;4169218;28;20025;-67
2021/09/02 02:21:30;;;;;;;16.17;11.75;;;15.40;99.90;;;15.18;90.62;101801.06;4169597;28;20398;-67
2021/09/02 02:23:31;;;;;;;17.75;11.98;;;15.40;99.90;;;15.07;90.50;101777.44;4169206;28;20022;-67
2021/09/02 02:25:32;;;;;;;18.08;12.07;;;15.30;99.90;;;15.18;90.65;101793.09;4169117;28;20515;-67
2021/09/02 02:27:33;;;;;;;16.75;11.77;;;15.30;99.90;;;15.14;90.43;101789.06;4169166;28;20083;-68
2021/09/02 02:29:34;;;;;;;17.08;12.85;;;15.30;99.90;;;15.01;91.16;101782.56;4168018;28;20029;-67
2021/09/02 02:31:35;;;;;;;15.07;12.07;;;15.20;99.90;;;14.98;91.20;101781.06;4167973;28;20052;-67
2021/09/02 02:33:36;;;;;;;16.63;11.90;;;15.20;99.90;;;15.08;90.79;101787.09;4169029;28;20037;-67
2021/09/02 02:35:37;;;;;;;22.17;12.48;;;15.20;99.90;;;15.08;90.89;101795.06;4168902;28;20068;-67
2021/09/02 02:37:38;;;;;;;15.20;11.98;;;15.20;99.90;;;15.07;91.12;101785.41;4167989;28;20213;-67
2021/09/02 02:39:39;;;;;;;19.20;12.52;;;15.20;99.90;;;15.19;90.10;101794.75;4167803;28;20560;-67
2021/09/02 02:41:40;;;;;;;19.52;12.40;;;15.20;99.90;;;15.12;90.38;101787.56;4168838;28;20037;-67
2021/09/02 02:43:41;;;;;;;20.38;12.10;;;15.20;99.90;;;15.06;90.47;101794.38;4169041;28;20025;-67
2021/09/02 02:45:42;;;;;;;16.40;12.43;;;15.20;99.90;;;15.12;90.24;101796.38;4168957;28;20037;-67
2021/09/02 02:47:43;;;;;;;16.98;11.30;;;15.20;99.90;;;15.02;91.11;101779.75;4184091;28;20079;-67
2021/09/02 02:49:44;;;;;;;20.80;12.70;;;15.20;99.90;;;14.99;91.02;101773.91;4167365;28;20029;-67
2021/09/02 02:51:45;;;;;;;14.80;11.35;;;15.20;99.90;;;15.04;90.69;101777.75;4168934;28;20456;-67
2021/09/02 02:53:46;;;;;;;18.42;12.88;;;15.20;99.90;;;14.99;90.83;101781.88;4167787;28;20025;-67
2021/09/02 02:55:46;;;;;;;21.15;11.80;;;15.10;99.90;;;15.04;90.68;101776.91;4167442;28;20037;-67
2021/09/02 02:57:47;;;;;;;16.88;11.75;;;15.10;99.90;;;15.07;90.69;101784.56;4167528;28;20115;-67
2021/09/02 02:59:48;;;;;;;20.05;13.02;;;15.10;99.90;;;14.92;90.94;101793.16;4168509;28;20034;-67
2021/09/02 03:01:49;;;;;;;15.70;11.57;;;15.10;99.90;;;14.96;91.58;101785.69;4168771;28;20029;-67
2021/09/02 03:03:50;;;;;;;15.20;11.32;;;15.10;99.90;;;14.96;91.60;101786.50;4168059;28;20108;-67
2021/09/02 03:05:51;;;;;;;14.48;10.57;;;15.00;99.90;;;14.82;92.59;101775.66;4162428;28;20034;-68
2021/09/02 03:07:52;;;;;;;16.92;12.55;;;15.00;99.90;;;14.83;91.48;101769.34;4184555;28;20032;-67
2021/09/02 03:09:53;;;;;;;19.17;12.90;;;15.00;99.90;;;14.92;90.99;101771.91;4168725;28;20069;-67
2021/09/02 03:11:53;;;;;;;17.95;11.82;;;15.00;99.90;;;14.90;91.00;101770.41;4168647;28;20033;-67
2021/09/02 03:13:54;;;;;;;20.40;12.88;;;15.00;99.90;;;14.92;91.38;101769.25;4167495;28;20034;-67
2021/09/02 03:15:55;;;;;;;17.25;11.40;;;15.00;99.90;;;14.89;91.46;101771.38;4167463;28;20033;-67
2021/09/02 03:17:58;;;;;;;16.42;11.45;;;15.00;99.90;;;14.94;91.08;101769.91;4168577;28;20068;-67
2021/09/02 03:19:58;;;;;;;19.05;11.65;;;15.00;99.90;;;14.99;91.05;101768.59;4167259;28;20099;-67
2021/09/02 03:21:59;;;;;;;16.58;10.73;;;14.90;99.90;;;14.93;91.35;101770.88;4167561;28;20029;-67
2021/09/02 03:24:00;;;;;;;16.15;11.52;;;15.00;99.90;;;14.95;91.47;101773.41;4168407;28;20026;-67
2021/09/02 03:26:01;;;;;;;16.88;11.27;;;14.90;99.90;;;14.92;90.72;101781.69;4168726;28;20477;-67
2021/09/02 03:28:02;;;;;;;22.15;11.43;;;14.90;99.90;;;14.91;90.84;101777.34;4168472;28;20026;-67
2021/09/02 03:30:05;;;;;;;16.35;11.60;;;14.90;99.90;;;14.81;92.40;101772.16;4168535;28;20057;-67
2021/09/02 03:32:06;;;;;;;17.20;12.38;;;14.90;99.90;;;14.93;91.37;101775.38;4167100;28;20052;-67
2021/09/02 03:34:07;;;;;;;19.35;12.65;;;14.90;99.90;;;14.91;91.12;101772.88;4168621;28;20037;-67
2021/09/02 03:36:08;;;;;;;16.52;11.38;;;14.90;99.90;;;14.89;91.90;101771.38;4167156;28;20112;-67
2021/09/02 03:38:09;;;;;;;19.20;11.80;;;14.90;99.90;;;14.89;91.27;101768.72;4167299;28;20083;-67
2021/09/02 03:40:11;;;;;;;16.85;11.80;;;14.90;99.90;;;14.87;91.40;101773.38;4168403;28;20481;-67
2021/09/02 03:42:12;;;;;;;24.80;13.05;;;14.90;99.90;;;14.81;91.50;101771.34;4168493;28;20036;-67
2021/09/02 03:44:13;;;;;;;17.67;12.40;;;14.90;99.90;;;14.83;91.33;101766.69;4168439;28;20026;-68
2021/09/02 03:46:14;;;;;;;17.65;12.38;;;14.80;99.90;;;14.79;92.32;101770.66;4167276;28;20033;-67
2021/09/02 03:48:16;;;;;;;13.35;11.20;;;14.80;99.90;;;14.80;91.47;101761.69;4168339;28;20033;-67
2021/09/02 03:50:18;;;;;;;16.08;11.60;;;14.80;99.90;;;14.61;91.44;101738.00;4167076;28;20026;-67
2021/09/02 03:52:19;;;;;;;17.42;12.00;;;14.80;99.90;;;14.66;92.35;101757.00;4168426;28;20029;-67
2021/09/02 03:54:20;;;;;;;17.02;11.38;;;14.80;99.90;;;14.69;91.95;101752.19;4183641;28;20100;-67
2021/09/02 03:56:21;;;;;;;15.30;12.00;;;14.70;99.90;;;14.70;91.74;101758.31;4166972;28;20026;-68
2021/09/02 03:58:22;;;;;;;17.00;11.73;;;14.70;99.90;;;14.76;91.47;101758.53;4167033;28;20588;-68
2021/09/02 04:00:23;;;;;;;15.13;11.65;;;14.70;99.90;;;14.70;91.85;101753.84;4168447;28;20021;-68
2021/09/02 04:02:24;;;;;;;16.17;11.77;;;14.70;99.90;;;14.59;92.50;101746.16;4168312;28;20022;-68
2021/09/02 04:04:24;;;;;;;17.42;11.38;;;14.70;99.90;;;14.58;93.30;101749.78;4166847;28;20029;-68
2021/09/02 04:06:25;;;;;;;15.15;11.52;;;14.70;99.90;;;14.66;91.54;101741.06;4168368;28;20065;-67
2021/09/02 04:08:26;;;;;;;14.75;11.55;;;14.70;99.90;;;14.56;93.03;101743.81;4167115;28;20256;-68
2021/09/02 04:10:27;;;;;;;21.73;12.90;;;14.70;99.90;;;14.43;93.79;101740.72;4168352;28;20396;-68
2021/09/02 04:12:28;;;;;;;22.92;12.80;;;14.60;99.90;;;14.60;92.52;101739.03;4167074;28;20040;-68
2021/09/02 04:14:29;;;;;;;18.60;12.65;;;14.50;99.90;;;14.51;93.40;101738.16;4168222;28;20021;-68
2021/09/02 04:16:30;;;;;;;16.80;11.50;;;14.60;99.90;;;14.58;92.65;101738.31;4168132;28;20022;-67
2021/09/02 04:18:31;;;;;;;16.67;11.70;;;14.60;99.90;;;14.59;92.71;101734.69;4183314;28;20031;-68
2021/09/02 04:20:32;;;;;;;19.13;12.48;;;14.60;99.90;;;14.49;93.29;101734.81;4167928;28;20032;-67
2021/09/02 04:22:33;;;;;;;18.67;12.48;;;14.50;99.90;;;14.47;93.53;101733.28;4168690;28;20021;-68
2021/09/02 04:24:34;;;;;;;17.63;12.10;;;14.50;99.90;;;14.49;93.15;101732.16;4171354;28;20482;-68
2021/09/02 04:26:35;;;;;;;18.35;12.25;;;14.50;99.90;;;14.47;93.74;101722.69;4171309;28;20025;-67
2021/09/02 04:28:36;;;;;;;20.15;12.02;;;14.50;99.90;;;14.54;92.61;101727.22;4171254;28;20028;-68
2021/09/02 04:30:37;;;;;;;17.42;11.55;;;14.50;99.90;;;14.45;92.94;101727.31;4171061;28;20021;-67
2021/09/02 04:32:38;;;;;;;19.35;13.25;;;14.50;99.90;;;14.44;92.80;101723.00;4170060;28;20029;-67
2021/09/02 04:34:39;;;;;;;20.10;13.00;;;14.50;99.90;;;14.54;92.70;101721.91;4169793;28;20098;-67
2021/09/02 04:36:41;;;;;;;16.05;13.18;;;14.50;99.90;;;14.46;92.52;101723.66;4170953;28;20034;-67
2021/09/02 04:38:42;;;;;;;19.45;12.45;;;14.50;99.90;;;14.49;92.89;101726.00;4170879;28;20025;-68
2021/09/02 04:40:43;;;;;;;19.58;12.05;;;14.50;99.90;;;14.39;92.99;101734.91;4169961;28;20040;-67
2021/09/02 04:42:44;;;;;;;17.83;12.82;;;14.50;99.90;;;14.36;93.30;101734.41;4171036;28;20440;-67
2021/09/02 04:44:45;;;;;;;16.85;12.75;;;14.40;99.90;;;14.28;93.98;101735.13;4171096;28;20059;-67
2021/09/02 04:46:46;;;;;;;22.27;13.13;;;14.40;99.90;;;14.19;94.11;101727.28;4169618;28;20479;-67
2021/09/02 04:48:47;;;;;;;17.05;12.20;;;14.40;99.90;;;14.32;93.85;101733.88;4170948;28;20037;-67
2021/09/02 04:50:50;;;;;;;20.95;13.63;;;14.40;99.90;;;14.44;93.10;101737.09;4169451;28;20080;-67
2021/09/02 04:52:51;;;;;;;18.10;13.25;;;14.40;99.90;;;14.35;93.59;101720.31;4170729;28;20037;-67
2021/09/02 04:54:52;;;;;;;17.08;11.75;;;14.40;99.90;;;14.38;93.15;101727.94;4170662;28;20060;-67
2021/09/02 04:56:53;;;;;;;18.95;12.88;;;14.40;99.90;;;14.24;94.40;101715.22;4170537;28;20041;-67
2021/09/02 04:58:54;;;;;;;19.67;13.45;;;14.40;99.90;;;14.29;94.15;101718.22;4169488;28;20053;-67
2021/09/02 05:00:55;;;;;;;21.83;13.02;;;14.30;99.90;;;14.19;93.58;101714.00;4170626;28;20033;-67
2021/09/02 05:02:56;;;;;;;25.98;13.43;;;14.40;99.90;;;14.15;94.75;101726.78;4170490;28;20105;-67
2021/09/02 05:04:57;;;;;;;22.92;13.93;;;14.30;99.90;;;14.06;94.53;101711.78;4170323;28;20147;-67
2021/09/02 05:06:58;;;;;;;18.58;13.38;;;14.30;99.90;;;14.17;94.23;101726.59;4170560;28;20032;-67
2021/09/02 05:08:59;;;;;;;19.35;13.63;;;14.30;99.90;;;14.16;94.49;101728.41;4170721;28;20392;-67
2021/09/02 05:10:59;;;;;;;23.00;14.70;;;14.30;99.90;;;13.97;94.68;101707.41;4169181;28;20021;-67
2021/09/02 05:13:00;;;;;;;18.55;12.80;;;14.20;99.90;;;13.96;95.33;101705.72;4170594;28;20075;-67
2021/09/02 05:15:02;;;;;;;21.13;14.75;;;14.20;99.90;;;14.03;95.07;101717.41;4170539;28;20069;-67
2021/09/02 05:17:03;;;;;;;20.83;13.90;;;14.20;99.90;;;13.96;95.37;101716.34;4170305;28;20435;-67
2021/09/02 05:19:04;;;;;;;19.60;13.93;;;14.20;99.90;;;14.03;95.62;101720.06;4170355;28;20390;-67
2021/09/02 05:21:05;;;;;;;23.15;14.93;;;14.20;99.90;;;13.99;95.81;101709.88;4170271;28;20033;-67
2021/09/02 05:23:06;;;;;;;20.70;13.65;;;14.20;99.90;;;14.06;95.17;101722.41;4170418;28;20029;-67
2021/09/02 05:25:09;;;;;;;20.45;14.60;;;14.10;99.90;;;14.01;94.81;101708.75;4167047;28;20029;-67
2021/09/02 05:27:10;;;;;;;21.25;13.88;;;14.10;99.90;;;14.01;95.13;101719.34;4186456;28;20025;-67
2021/09/02 05:29:11;;;;;;;22.92;15.70;;;14.20;99.90;;;13.96;95.36;101721.63;4158930;28;20033;-68
2021/09/02 05:31:12;;;;;;;20.90;13.45;;;14.10;99.90;;;13.89;95.56;101715.28;4171264;28;20022;-67
2021/09/02 05:33:13;;;;;;;22.80;13.50;;;14.10;99.90;;;13.94;95.36;101717.47;4170003;28;20052;-67
2021/09/02 05:35:15;;;;;;;19.30;13.98;;;14.10;99.90;;;13.92;96.04;101708.84;4169735;28;20459;-67
2021/09/02 05:37:16;;;;;;;20.30;14.57;;;14.10;99.90;;;13.93;95.71;101713.16;4171303;28;20358;-67
2021/09/02 05:39:17;;;;;;;22.58;14.73;;;14.10;99.90;;;13.83;95.26;101682.25;4171209;28;20087;-67
2021/09/02 05:41:18;;;;;;;22.90;15.73;;;14.10;99.90;;;13.96;95.32;101710.19;4171359;28;20037;-67
2021/09/02 05:43:20;;;;;;;23.63;13.13;;;14.10;99.90;;;13.97;95.34;101711.88;4171110;28;20022;-68
2021/09/02 05:45:21;;;;;;;23.33;13.27;;;14.10;99.90;;;13.89;96.05;101711.81;4170016;28;20064;-68
2021/09/02 05:47:25;;;;;;;21.77;14.32;;;14.10;99.90;;;13.95;95.79;101722.63;4171110;28;20030;-67
2021/09/02 05:49:26;;;;;;;;;;;14.10;99.90;;;13.79;96.44;101714.56;4171158;28;20056;-68
2021/09/02 05:51:27;;;;;;;20.33;14.88;;;14.10;99.90;;;13.79;96.15;101726.00;4170526;28;19912;-67
2021/09/02 05:53:28;;;;;;;19.90;13.20;;;14.10;99.90;;;13.78;96.60;101723.47;4170722;28;20116;-67
2021/09/02 05:55:29;;;;;;;22.88;13.90;;;14.10;99.90;;;13.70;96.39;101726.91;4170668;28;20037;-67
2021/09/02 05:57:31;;;;;;;21.38;14.93;;;14.10;99.90;;;13.77;96.73;101732.41;4170549;28;20097;-67
2021/09/02 05:59:32;;;;;;;20.80;14.70;;;14.10;99.90;;;13.79;96.39;101725.16;4170648;28;20063;-67
2021/09/02 06:01:33;;;;;;;20.63;14.98;;;14.10;99.90;;;13.73;96.80;101720.47;4170649;28;20033;-67
2021/09/02 06:03:34;;;;;;;20.33;13.68;;;14.10;99.90;;;13.82;96.20;101728.34;4169469;28;20022;-67
2021/09/02 06:05:35;;;;;;;19.45;13.93;;;14.10;99.90;;;13.92;96.32;101727.41;4170464;28;20018;-68
2021/09/02 06:07:36;;;;;;;22.00;14.80;;;14.10;99.90;;;13.84;96.13;101720.22;4169792;28;20037;-68
2021/09/02 06:09:38;;;;;;;23.45;14.45;;;14.10;99.90;;;13.85;96.03;101724.53;4168340;28;20045;-67
2021/09/02 06:11:39;;;;;;;21.40;14.23;;;14.10;99.90;;;13.98;95.47;101732.13;4169283;28;20053;-68
2021/09/02 06:13:40;;;;;;;25.52;14.88;;;14.20;99.90;;;13.96;95.47;101732.25;4169252;28;20052;-68
2021/09/02 06:15:44;;;;;;;23.73;16.48;;;14.20;99.90;;;13.97;94.95;101733.94;4168277;28;20029;-68
2021/09/02 06:17:45;;;;;;;18.85;13.20;;;14.30;99.90;;;13.94;95.27;101731.59;4169487;28;20029;-68
2021/09/02 06:19:46;;;;;;;21.25;14.13;;;14.30;99.90;;;14.02;95.13;101726.34;4168110;28;20112;-68
2021/09/02 06:21:47;;;;;;;21.00;15.00;;;14.30;99.90;;;13.96;95.82;101728.75;4168110;28;20040;-68
2021/09/02 06:23:48;;;;;;;21.55;14.57;;;14.30;99.90;;;14.05;95.54;101726.03;4169265;28;20052;-68
2021/09/02 06:25:49;;;;;;;22.67;15.70;;;14.30;99.90;;;14.08;94.77;101730.19;4169212;28;20065;-68
2021/09/02 06:27:50;;;;;;;22.08;15.07;;;14.40;99.90;;;14.09;94.63;101727.38;4168086;28;20109;-68
2021/09/02 06:29:50;;;;;;;21.38;14.88;;;14.40;99.90;;;14.01;95.39;101723.84;4191445;28;20060;-68
2021/09/02 06:31:52;;;;;;;20.02;14.77;;;14.50;99.90;;;14.12;95.32;101718.28;4151521;28;20034;-68
2021/09/02 06:33:53;;;;;;;22.10;14.10;;;14.50;99.90;;;14.07;95.29;101724.03;4152799;28;20033;-68
2021/09/02 06:35:54;;;;;;;20.50;15.05;;;14.50;99.90;;;13.91;96.19;101721.28;4152737;28;20421;-68
2021/09/02 06:37:55;;;;;;;19.83;14.05;;;14.50;99.90;;;13.98;95.86;101714.34;4151544;28;20060;-68
2021/09/02 06:39:56;;;;;;;21.90;14.88;;;14.50;99.90;;;13.94;96.30;101718.31;4152487;28;20045;-68
2021/09/02 06:41:57;;;;;;;22.85;14.27;;;14.50;99.90;;;13.92;96.42;101708.84;4152455;28;20030;-68
2021/09/02 06:43:58;;;;;;;20.65;14.18;;;14.50;99.90;;;13.93;96.20;101699.88;4152769;28;20064;-68
2021/09/02 06:45:59;;;;;;;22.55;14.27;;;14.50;99.90;;;14.06;95.58;101714.44;4151358;28;20525;-68
2021/09/02 06:48:00;;;;;;;22.30;14.82;;;14.50;99.90;;;14.03;95.72;101712.09;4152587;28;20559;-68
2021/09/02 06:50:01;;;;;;;19.83;14.65;;;14.50;99.90;;;14.07;95.29;101712.59;4151157;28;20040;-68
2021/09/02 06:52:02;;;;;;;22.30;14.20;;;14.60;99.90;;;14.19;95.34;101724.63;4151352;28;20080;-67
2021/09/02 06:54:03;;;;;;;21.80;14.45;;;14.60;99.90;;;14.19;95.07;101714.00;4152544;28;20021;-68
2021/09/02 06:56:05;;;;;;;22.08;14.57;;;14.60;99.90;;;14.23;94.78;101712.72;4158360;28;20029;-68
2021/09/02 06:58:06;;;;;;;24.10;14.70;;;14.70;99.90;;;14.27;94.66;101717.56;4167501;28;20115;-68
2021/09/02 07:00:08;;;;;;;18.35;14.00;;;14.70;99.90;;;14.27;94.87;101720.22;4168572;28;20457;-68
2021/09/02 07:02:09;;;;;;;20.50;14.20;;;14.80;99.90;;;14.29;94.60;101718.22;4167647;28;20082;-68
2021/09/02 07:04:10;;;;;;;21.73;14.48;;;14.80;99.90;;;14.39;94.43;101724.28;4167332;28;20021;-68
2021/09/02 07:06:11;;;;;;;20.23;14.05;;;14.80;99.90;;;14.38;94.93;101727.09;4168585;28;20055;-68
2021/09/02 07:08:12;;;;;;;21.75;15.10;;;14.90;99.90;;;14.33;94.54;101727.59;4167509;28;20032;-67
2021/09/02 07:10:13;;;;;;;20.88;14.07;;;14.90;99.90;;;14.44;94.46;101726.47;4168790;28;20399;-68
2021/09/02 07:12:14;;;;;;;24.42;14.68;;;14.90;99.90;;;14.54;93.65;101735.19;4168697;28;20033;-68
2021/09/02 07:14:15;;;;;;;18.63;12.98;;;15.00;99.90;;;14.65;93.79;101737.56;4168530;28;20029;-68
2021/09/02 07:16:16;;;;;;;22.45;14.43;;;15.00;99.90;;;14.73;93.63;101737.59;4168508;28;20036;-68
2021/09/02 07:18:17;;;;;;;21.05;14.38;;;15.10;99.90;;;14.80;93.10;101729.81;4168564;28;20069;-68
2021/09/02 07:20:18;;;;;;;22.27;12.68;;;15.20;99.90;;;14.84;91.85;101718.69;4168332;28;20037;-68
2021/09/02 07:22:19;;;;;;;17.38;12.38;;;15.30;99.90;;;14.87;92.20;101720.22;4167285;28;20030;-68
2021/09/02 07:24:20;;;;;;;20.00;13.32;;;15.30;99.90;;;14.95;92.22;101720.25;4168601;28;20097;-68
2021/09/02 07:26:21;;;;;;;19.85;14.15;;;15.30;99.90;;;14.88;91.55;101703.28;4167370;28;20083;-68
2021/09/02 07:28:22;;;;;;;21.33;13.63;;;15.40;99.90;;;15.06;91.44;101706.66;4168431;28;20024;-68
2021/09/02 07:30:23;;;;;;;17.27;12.65;;;15.40;99.90;;;15.05;91.81;101705.03;4167246;28;20036;-68
2021/09/02 07:32:26;;;;;;;17.00;12.75;;;15.50;99.90;;;15.01;90.85;101703.69;4167357;28;20045;-68
2021/09/02 07:34:27;;;;;;;22.02;14.43;;;15.60;99.90;;;15.15;90.82;101711.00;4168123;28;20029;-68
2021/09/02 07:36:28;;;;;;;16.35;12.23;;;15.60;99.90;;;15.34;90.98;101710.75;4168325;28;20060;-68
2021/09/02 07:38:29;;;;;;;18.17;12.82;;;15.70;99.90;;;15.44;90.60;101711.41;4167181;28;20026;-68
2021/09/02 07:40:30;;;;;;;19.60;13.27;;;15.80;99.90;;;15.53;90.94;101709.63;4168411;28;20022;-68
2021/09/02 07:42:31;;;;;;;19.10;12.90;;;15.90;99.90;;;15.47;90.34;101700.47;4167376;28;20384;-67
2021/09/02 07:44:32;;;;;;;21.33;13.57;;;15.90;99.90;;;15.58;90.19;101712.63;4168398;28;20057;-68
2021/09/02 07:46:33;;;;;;;21.70;14.68;;;16.00;99.90;;;15.55;89.24;101712.97;4168170;28;20524;-68
2021/09/02 07:48:33;;;;;;;26.85;13.00;;;16.10;99.90;;;15.55;89.71;101693.50;4168392;28;20100;-68
2021/09/02 07:50:34;;;;;;;24.02;14.23;;;16.10;99.90;;;15.32;89.39;101656.88;4168245;28;20057;-68
2021/09/02 07:52:36;;;;;;;19.35;13.35;;;16.10;99.90;;;15.52;88.87;101685.88;4168305;28;20028;-68
2021/09/02 07:54:37;;;;;;;25.02;13.90;;;16.10;99.90;;;15.52;89.06;101691.19;4168219;28;20509;-68
2021/09/02 07:56:38;;;;;;;19.33;13.68;;;16.20;99.90;;;15.68;89.16;101702.66;4168059;28;20024;-68
2021/09/02 07:58:41;;;;;;;20.45;13.32;;;16.20;99.90;;;15.54;88.45;101689.19;4170373;28;20390;-68
2021/09/02 08:00:42;;;;;;;18.83;11.97;;;16.20;99.90;;;15.62;89.11;101686.53;4171627;28;20461;-68
2021/09/02 08:02:44;;;;;;;18.30;12.90;;;16.30;99.90;;;15.70;88.45;101686.53;4171301;28;20275;-68
2021/09/02 08:04:44;;;;;;;19.42;12.57;;;16.30;99.90;;;15.74;88.26;101696.66;4171559;28;20045;-68
2021/09/02 08:06:45;;;;;;;19.50;13.40;;;16.30;99.90;;;15.89;88.34;101696.81;4203332;28;20074;-68
2021/09/02 08:08:46;;;;;;;17.65;13.07;;;16.40;99.90;;;15.95;87.70;101690.84;4171450;28;20489;-68
2021/09/02 08:10:49;;;;;;;17.23;12.27;;;16.50;99.90;;;16.00;87.77;101696.50;4171391;28;20029;-68
2021/09/02 08:12:51;;;;;;;18.80;13.48;;;16.50;99.90;;;16.17;87.68;101691.97;4171440;28;20037;-68
2021/09/02 08:14:52;;;;;;;17.17;12.13;;;16.60;99.90;;;16.18;86.73;101688.31;4171375;28;20477;-68